Time;durP1;ratioP1;P1;durP2;ratioP2;P2;SDS_P1;SDS_P2;PMS_P1;PMS_P2;Temp;Humidity;BMP_temperature;BMP_pressure;BME280_temperature;BME280_humidity;BME280_pressure;Samples;Min_cycle;Max_cycle;Signal;HPM_P1;HPM_P2
2023/09/27 00:00:40;;;;;;;11.05;3.38;;;18.50;99.90;;;;;;5032528;28;20529;-86
2023/09/27 00:03:06;;;;;;;11.82;3.00;;;18.60;99.90;;;;;;5032898;28;20029;-86
2023/09/27 00:05:32;;;;;;;13.15;2.92;;;18.70;99.90;;;;;;5032604;28;20087;-85
2023/09/27 00:07:57;;;;;;;22.85;3.65;;;18.80;99.90;;;;;;5031340;28;20030;-85
2023/09/27 00:10:23;;;;;;;8.02;3.25;;;19.00;99.70;;;;;;5032012;28;20080;-85
2023/09/27 00:12:49;;;;;;;17.30;3.67;;;19.10;99.00;;;;;;5031339;28;20075;-85
2023/09/27 00:15:15;;;;;;;13.98;2.72;;;19.20;98.80;;;;;;5030861;28;20453;-84
2023/09/27 00:17:43;;;;;;;10.07;2.72;;;19.30;98.40;;;;;;5030941;28;20144;-86
2023/09/27 00:20:15;;;;;;;9.82;3.47;;;19.30;98.40;;;;;;5031079;28;20026;-85
2023/09/27 00:22:42;;;;;;;15.68;3.88;;;19.40;98.20;;;;;;5031133;28;20128;-86
2023/09/27 00:25:08;;;;;;;11.20;2.88;;;19.30;98.10;;;;;;5032099;28;20445;-84
2023/09/27 00:27:35;;;;;;;9.68;2.85;;;19.30;98.20;;;;;;5032109;28;20108;-86
2023/09/27 00:30:02;;;;;;;13.75;4.03;;;19.30;98.50;;;;;;5032542;28;20022;-87
2023/09/27 00:32:27;;;;;;;10.35;3.60;;;19.30;98.00;;;;;;5047417;28;20037;-85
2023/09/27 00:34:53;;;;;;;11.60;3.05;;;19.40;97.90;;;;;;5031668;28;20056;-87
2023/09/27 00:37:18;;;;;;;7.28;3.45;;;19.40;97.80;;;;;;5032007;28;20067;-86
2023/09/27 00:39:44;;;;;;;13.65;4.07;;;19.40;97.70;;;;;;5032282;28;20022;-86
2023/09/27 00:42:10;;;;;;;7.30;3.45;;;19.30;97.80;;;;;;5032380;28;20034;-83
2023/09/27 00:44:36;;;;;;;9.95;3.92;;;19.40;97.80;;;;;;5032069;28;20031;-86
2023/09/27 00:47:04;;;;;;;11.55;3.78;;;19.40;97.70;;;;;;5030928;28;20033;-85
2023/09/27 00:49:30;;;;;;;14.45;3.63;;;19.40;97.80;;;;;;5030933;28;20221;-85
2023/09/27 00:51:57;;;;;;;9.18;3.55;;;19.40;97.80;;;;;;5029779;28;20021;-85
2023/09/27 00:54:23;;;;;;;10.40;3.47;;;19.40;98.00;;;;;;5031200;28;20076;-88
2023/09/27 00:56:51;;;;;;;11.68;3.15;;;19.40;98.00;;;;;;5032110;28;20045;-85
2023/09/27 00:59:18;;;;;;;22.45;3.55;;;19.50;98.10;;;;;;5030605;28;20067;-84
2023/09/27 01:01:45;;;;;;;11.07;3.40;;;19.40;98.20;;;;;;5030671;28;20041;-86
2023/09/27 01:04:13;;;;;;;10.00;3.40;;;19.30;98.20;;;;;;5031582;28;20449;-84
2023/09/27 01:06:40;;;;;;;9.05;2.92;;;19.20;98.50;;;;;;5031517;28;20087;-86
2023/09/27 01:09:06;;;;;;;5.78;2.45;;;19.10;98.90;;;;;;5030133;28;20445;-85
2023/09/27 01:11:33;;;;;;;14.25;3.15;;;18.90;99.20;;;;;;5031266;28;20035;-86
2023/09/27 01:13:59;;;;;;;15.18;3.50;;;18.80;99.90;;;;;;5031486;28;20025;-86
2023/09/27 01:16:24;;;;;;;18.60;3.63;;;18.80;99.90;;;;;;5029562;28;20421;-86
2023/09/27 01:18:50;;;;;;;15.88;3.30;;;18.70;99.90;;;;;;5031864;28;20022;-87
2023/09/27 01:21:19;;;;;;;13.75;3.92;;;18.70;99.90;;;;;;5034547;28;20037;-86
2023/09/27 01:23:49;;;;;;;15.27;3.88;;;18.60;99.90;;;;;;5030262;28;20029;-87
2023/09/27 01:26:16;;;;;;;13.88;3.47;;;18.70;99.90;;;;;;5030941;28;20022;-86
2023/09/27 01:28:44;;;;;;;17.92;4.50;;;18.60;99.90;;;;;;5030014;28;20128;-86
2023/09/27 01:31:10;;;;;;;8.65;4.03;;;18.60;99.90;;;;;;5031383;28;20025;-87
2023/09/27 01:33:36;;;;;;;16.88;3.78;;;18.70;99.90;;;;;;5046482;28;20025;-84
2023/09/27 01:36:03;;;;;;;10.55;3.40;;;18.60;99.90;;;;;;5031189;28;20486;-86
2023/09/27 01:38:29;;;;;;;23.55;3.55;;;18.60;99.90;;;;;;5029921;28;20032;-87
2023/09/27 01:40:55;;;;;;;13.98;3.78;;;18.50;99.90;;;;;;5030860;28;20033;-86
2023/09/27 01:43:21;;;;;;;14.10;3.65;;;18.40;99.90;;;;;;5030823;28;20563;-88
2023/09/27 01:45:46;;;;;;;16.10;4.70;;;18.40;99.90;;;;;;5030787;28;20037;-87
2023/09/27 01:48:12;;;;;;;8.95;3.33;;;18.40;99.90;;;;;;5029657;28;20025;-86
2023/09/27 01:50:38;;;;;;;12.70;3.58;;;18.40;99.90;;;;;;5030980;28;20021;-87
2023/09/27 01:53:04;;;;;;;11.27;4.20;;;18.40;99.90;;;;;;5029390;28;20030;-87
2023/09/27 01:55:30;;;;;;;9.75;3.28;;;18.40;99.90;;;;;;5029645;28;20028;-84
2023/09/27 01:57:56;;;;;;;11.52;3.15;;;18.40;99.90;;;;;;5030487;28;20040;-87
2023/09/27 02:00:22;;;;;;;15.40;4.07;;;18.40;99.90;;;;;;5029567;28;20033;-85
2023/09/27 02:02:57;;;;;;;18.25;3.90;;;18.30;99.90;;;;;;5031156;28;20108;-86
2023/09/27 02:05:23;;;;;;;11.77;3.58;;;18.40;99.90;;;;;;5031242;28;20141;-86
2023/09/27 02:07:49;;;;;;;15.43;3.72;;;18.40;99.90;;;;;;5029158;28;20029;-87
2023/09/27 02:10:15;;;;;;;6.15;2.92;;;18.40;99.90;;;;;;5030388;28;20021;-86
2023/09/27 02:12:40;;;;;;;7.28;3.15;;;18.40;99.90;;;;;;5030647;28;20502;-85
2023/09/27 02:15:08;;;;;;;8.82;3.53;;;18.30;99.90;;;;;;5029088;28;20033;-87
2023/09/27 02:17:35;;;;;;;7.20;3.35;;;18.30;99.90;;;;;;5030351;28;20037;-86
2023/09/27 02:20:12;;;;;;;10.93;3.15;;;18.20;99.90;;;;;;5030347;28;20060;-87
2023/09/27 02:22:40;;;;;;;6.63;3.17;;;18.10;99.90;;;;;;5030502;28;20029;-87
2023/09/27 02:25:09;;;;;;;10.73;3.67;;;18.00;99.90;;;;;;5028982;28;20052;-86
2023/09/27 02:27:35;;;;;;;11.32;4.03;;;17.90;99.90;;;;;;5030096;28;20120;-86
2023/09/27 02:30:03;;;;;;;13.68;3.47;;;17.90;99.90;;;;;;5030408;28;20033;-87
2023/09/27 02:32:29;;;;;;;13.88;3.30;;;17.80;99.90;;;;;;5030370;28;20033;-86
2023/09/27 02:34:55;;;;;;;12.43;3.75;;;17.80;99.90;;;;;;5028588;28;20490;-86
2023/09/27 02:37:20;;;;;;;14.82;3.78;;;17.80;99.90;;;;;;5029973;28;20036;-88
2023/09/27 02:39:46;;;;;;;9.98;3.63;;;17.70;99.90;;;;;;5045449;28;20037;-86
2023/09/27 02:42:12;;;;;;;12.82;3.45;;;17.80;99.90;;;;;;5029968;28;20069;-87
2023/09/27 02:44:38;;;;;;;15.13;3.65;;;17.80;99.90;;;;;;5028749;28;20491;-87
2023/09/27 02:47:04;;;;;;;14.15;4.32;;;17.80;99.90;;;;;;5030080;28;20092;-88
2023/09/27 02:49:32;;;;;;;10.07;3.42;;;17.80;99.90;;;;;;5029816;28;20025;-87
2023/09/27 02:51:58;;;;;;;12.27;3.80;;;17.80;99.90;;;;;;5030214;28;20490;-88
2023/09/27 02:54:24;;;;;;;11.93;4.25;;;17.80;99.90;;;;;;5029907;28;20056;-87
2023/09/27 02:56:50;;;;;;;7.07;4.10;;;17.80;99.90;;;;;;5030104;28;20475;-87
2023/09/27 02:59:15;;;;;;;11.48;3.65;;;17.70;99.90;;;;;;5028374;28;20033;-87
2023/09/27 03:01:41;;;;;;;13.88;3.83;;;17.70;99.90;;;;;;5045274;28;20045;-87
2023/09/27 03:04:11;;;;;;;12.80;3.97;;;17.70;99.90;;;;;;5029982;28;20087;-86
2023/09/27 03:06:41;;;;;;;11.90;3.90;;;17.70;99.90;;;;;;5030000;28;20030;-86
2023/09/27 03:09:11;;;;;;;8.93;3.55;;;17.70;99.90;;;;;;5028986;28;20026;-86
2023/09/27 03:11:39;;;;;;;15.10;3.97;;;17.80;99.90;;;;;;5030645;28;20044;-87
2023/09/27 03:14:04;;;;;;;15.63;3.90;;;17.80;99.90;;;;;;5034157;28;20013;-88
2023/09/27 03:16:30;;;;;;;17.63;3.83;;;17.80;99.90;;;;;;5033896;28;20060;-86
2023/09/27 03:18:58;;;;;;;11.15;3.83;;;17.90;99.90;;;;;;5033725;28;20509;-87
2023/09/27 03:21:26;;;;;;;12.35;3.95;;;17.90;99.90;;;;;;5033967;28;20160;-86
2023/09/27 03:23:53;;;;;;;13.75;4.05;;;17.90;99.90;;;;;;5033826;28;20032;-88
2023/09/27 03:26:20;;;;;;;11.00;4.05;;;17.90;99.90;;;;;;5032485;28;20234;-84
2023/09/27 03:28:46;;;;;;;7.25;3.67;;;17.90;99.90;;;;;;5032481;28;20409;-88
2023/09/27 03:31:11;;;;;;;6.38;3.22;;;17.90;99.90;;;;;;5033559;28;20044;-86
2023/09/27 03:33:37;;;;;;;6.53;3.17;;;17.90;99.90;;;;;;5033264;28;20025;-86
2023/09/27 03:36:03;;;;;;;8.63;3.65;;;17.90;99.90;;;;;;5033321;28;20034;-85
2023/09/27 03:38:29;;;;;;;10.25;2.92;;;17.80;99.90;;;;;;5031854;28;20079;-86
2023/09/27 03:40:55;;;;;;;12.70;3.38;;;17.70;99.90;;;;;;5031927;28;20472;-86
2023/09/27 03:43:21;;;;;;;8.75;3.80;;;17.70;99.90;;;;;;5033791;28;20080;-87
2023/09/27 03:45:47;;;;;;;10.75;4.20;;;17.60;99.90;;;;;;5033330;28;20055;-87
2023/09/27 03:48:13;;;;;;;10.07;3.67;;;17.50;99.90;;;;;;5032382;28;20489;-85
2023/09/27 03:50:38;;;;;;;10.63;3.15;;;17.40;99.90;;;;;;5033675;28;20083;-88
2023/09/27 03:53:04;;;;;;;13.48;3.78;;;17.30;99.90;;;;;;5032344;28;20029;-87
2023/09/27 03:55:30;;;;;;;14.38;3.22;;;17.40;99.90;;;;;;5033650;28;20091;-87
2023/09/27 03:57:55;;;;;;;10.63;3.53;;;17.40;99.90;;;;;;5031910;28;20078;-86
2023/09/27 04:00:22;;;;;;;11.63;3.50;;;17.40;99.90;;;;;;5032114;28;20029;-85
2023/09/27 04:02:48;;;;;;;7.30;2.97;;;17.50;99.90;;;;;;5032177;28;20029;-87
2023/09/27 04:05:14;;;;;;;17.88;4.00;;;17.60;99.90;;;;;;5032521;28;20045;-84
2023/09/27 04:07:41;;;;;;;14.38;3.47;;;17.60;99.90;;;;;;5033026;28;20083;-86
2023/09/27 04:10:07;;;;;;;14.18;3.50;;;17.70;99.90;;;;;;5032994;28;20527;-85
2023/09/27 04:12:34;;;;;;;8.45;3.22;;;17.70;99.90;;;;;;5033027;28;20025;-84
2023/09/27 04:15:00;;;;;;;10.77;3.40;;;17.60;99.90;;;;;;5032674;28;20101;-87
2023/09/27 04:17:25;;;;;;;6.03;3.15;;;17.60;99.90;;;;;;5032848;28;20124;-87
2023/09/27 04:19:53;;;;;;;12.82;3.95;;;17.60;99.90;;;;;;5032995;28;20108;-86
2023/09/27 04:22:19;;;;;;;13.45;4.20;;;17.50;99.90;;;;;;5032273;28;20038;-87
2023/09/27 04:24:45;;;;;;;8.95;2.95;;;17.50;99.90;;;;;;5031530;28;20025;-86
2023/09/27 04:27:11;;;;;;;17.13;3.38;;;17.50;99.90;;;;;;5032936;28;20060;-86
2023/09/27 04:29:37;;;;;;;11.80;3.55;;;17.60;99.90;;;;;;5031324;28;20463;-83
2023/09/27 04:32:03;;;;;;;11.43;3.20;;;17.60;99.90;;;;;;5032262;28;20029;-87
2023/09/27 04:34:28;;;;;;;13.48;3.58;;;17.60;99.90;;;;;;5031971;28;20471;-86
2023/09/27 04:36:55;;;;;;;20.75;3.10;;;17.60;99.90;;;;;;5047111;28;20112;-86
2023/09/27 04:39:20;;;;;;;9.45;3.50;;;17.50;99.90;;;;;;5032161;28;20030;-90
2023/09/27 04:41:46;;;;;;;11.02;3.58;;;17.40;99.90;;;;;;5031003;28;20111;-86
2023/09/27 04:44:16;;;;;;;14.02;3.70;;;17.20;99.90;;;;;;5047748;28;20029;-86
2023/09/27 04:46:41;;;;;;;8.57;3.58;;;17.00;99.90;;;;;;5031470;28;20033;-85
2023/09/27 04:49:07;;;;;;;8.52;4.13;;;16.90;99.90;;;;;;5031225;28;20029;-85
2023/09/27 04:51:33;;;;;;;7.72;3.85;;;16.80;99.90;;;;;;5032308;28;20061;-87
2023/09/27 04:54:02;;;;;;;8.15;3.83;;;16.70;99.90;;;;;;5031439;28;20057;-86
2023/09/27 04:56:29;;;;;;;9.52;4.22;;;16.60;99.90;;;;;;5030848;28;20033;-86
2023/09/27 04:58:56;;;;;;;16.35;4.28;;;16.50;99.90;;;;;;5031892;28;20017;-84
2023/09/27 05:01:22;;;;;;;10.57;3.72;;;16.40;99.90;;;;;;5032662;28;20125;-86
2023/09/27 05:03:49;;;;;;;9.70;3.72;;;16.40;99.90;;;;;;5032343;28;20116;-86
2023/09/27 05:06:15;;;;;;;13.77;3.47;;;16.40;99.90;;;;;;5033330;28;20025;-85
2023/09/27 05:08:40;;;;;;;17.02;4.30;;;16.30;99.90;;;;;;5031340;28;20086;-83
2023/09/27 05:11:06;;;;;;;8.43;3.58;;;16.30;99.90;;;;;;5030254;28;20037;-85
2023/09/27 05:13:32;;;;;;;10.80;3.33;;;16.40;99.90;;;;;;5031535;28;20022;-87
2023/09/27 05:15:58;;;;;;;11.50;4.00;;;16.40;99.90;;;;;;5032052;28;20111;-84
2023/09/27 05:18:24;;;;;;;8.25;3.28;;;16.50;99.90;;;;;;5033480;28;20397;-86
2023/09/27 05:20:49;;;;;;;13.10;4.32;;;16.50;99.90;;;;;;5032795;28;20104;-86
2023/09/27 05:23:15;;;;;;;10.65;3.70;;;16.60;99.90;;;;;;5033037;28;20113;-85
2023/09/27 05:25:41;;;;;;;10.98;3.95;;;16.70;99.90;;;;;;5031242;28;20032;-84
2023/09/27 05:28:07;;;;;;;9.32;2.88;;;16.80;99.90;;;;;;5031840;28;20036;-86
2023/09/27 05:30:33;;;;;;;9.73;3.10;;;17.00;99.90;;;;;;5031323;28;20026;-85
2023/09/27 05:32:58;;;;;;;10.02;3.30;;;17.20;99.90;;;;;;5031061;28;20028;-86
2023/09/27 05:35:24;;;;;;;8.63;3.25;;;17.40;99.90;;;;;;5031323;28;20083;-85
2023/09/27 05:37:50;;;;;;;6.93;3.15;;;17.60;99.90;;;;;;5032032;28;20029;-84
2023/09/27 05:40:16;;;;;;;13.40;3.67;;;17.90;99.90;;;;;;5030997;28;20040;-84
2023/09/27 05:42:42;;;;;;;11.13;3.53;;;18.20;99.90;;;;;;5030906;28;20029;-83
2023/09/27 05:45:11;;;;;;;13.55;3.50;;;18.50;99.90;;;;;;5029713;28;20443;-83
2023/09/27 05:47:38;;;;;;;11.38;3.33;;;18.70;99.90;;;;;;5029477;28;20029;-83
2023/09/27 05:50:04;;;;;;;14.05;3.35;;;19.00;99.90;;;;;;5030970;28;20040;-83
2023/09/27 05:52:31;;;;;;;8.57;3.67;;;19.20;99.90;;;;;;5029527;28;20014;-83
2023/09/27 05:54:57;;;;;;;11.45;3.45;;;19.30;99.90;;;;;;5029522;28;20029;-82
2023/09/27 05:57:23;;;;;;;16.92;3.83;;;19.40;99.90;;;;;;5030551;28;20021;-83
2023/09/27 05:59:49;;;;;;;9.32;4.07;;;19.50;99.90;;;;;;5030612;28;20561;-82
2023/09/27 06:02:19;;;;;;;16.92;4.00;;;19.70;99.90;;;;;;5029465;28;20124;-80
2023/09/27 06:04:48;;;;;;;9.23;3.70;;;19.80;99.90;;;;;;5030369;28;20025;-82
2023/09/27 06:07:17;;;;;;;7.72;3.20;;;20.00;99.90;;;;;;5029240;28;20024;-81
2023/09/27 06:09:43;;;;;;;12.93;3.35;;;20.10;99.90;;;;;;5030453;28;20026;-81
2023/09/27 06:12:12;;;;;;;10.77;3.35;;;20.20;99.90;;;;;;5029953;28;20057;-80
2023/09/27 06:14:38;;;;;;;21.83;3.97;;;20.40;99.80;;;;;;5029994;28;20030;-81
2023/09/27 06:17:05;;;;;;;11.82;3.30;;;20.70;98.90;;;;;;5030274;28;20049;-81
2023/09/27 06:19:31;;;;;;;12.57;3.47;;;21.00;97.10;;;;;;5028918;28;20044;-80
2023/09/27 06:21:58;;;;;;;17.35;3.47;;;21.30;96.00;;;;;;5031345;28;20060;-81
2023/09/27 06:24:28;;;;;;;11.65;3.45;;;21.70;94.80;;;;;;5029705;28;20049;-83
2023/09/27 06:26:54;;;;;;;10.70;3.42;;;22.20;93.00;;;;;;5031218;28;20030;-83
2023/09/27 06:29:20;;;;;;;14.60;3.55;;;22.90;90.90;;;;;;5031233;28;20028;-83
2023/09/27 06:31:47;;;;;;;10.80;3.90;;;23.40;87.40;;;;;;5031305;28;20100;-84
2023/09/27 06:34:16;;;;;;;14.90;4.07;;;24.00;84.30;;;;;;5029464;28;20033;-81
2023/09/27 06:36:48;;;;;;;12.38;3.45;;;24.50;80.60;;;;;;5030968;28;20429;-81
2023/09/27 06:39:19;;;;;;;9.45;3.63;;;24.90;76.40;;;;;;5030639;28;20036;-83
2023/09/27 06:41:45;;;;;;;21.35;4.35;;;25.40;73.70;;;;;;5030420;28;20029;-83
2023/09/27 06:44:12;;;;;;;17.33;3.47;;;25.80;70.50;;;;;;5030777;28;20057;-84
2023/09/27 06:46:38;;;;;;;11.95;3.95;;;26.20;67.70;;;;;;5029996;28;20029;-81
2023/09/27 06:49:04;;;;;;;17.20;3.53;;;26.40;63.90;;;;;;5028098;28;20033;-83
2023/09/27 06:51:31;;;;;;;7.25;3.17;;;26.60;62.10;;;;;;5028265;28;20046;-82
2023/09/27 06:53:57;;;;;;;10.07;3.65;;;26.80;61.20;;;;;;5029088;28;20501;-83
2023/09/27 06:56:23;;;;;;;7.35;3.40;;;27.10;60.00;;;;;;5028546;28;20029;-81
2023/09/27 06:58:51;;;;;;;13.57;3.50;;;27.30;59.30;;;;;;5029544;28;20052;-82
2023/09/27 07:01:18;;;;;;;17.15;4.32;;;27.50;58.00;;;;;;5029516;28;20072;-81
2023/09/27 07:03:43;;;;;;;8.27;3.08;;;27.90;56.90;;;;;;5027785;28;20030;-82
2023/09/27 07:06:09;;;;;;;10.52;3.45;;;28.00;54.60;;;;;;5027405;28;20068;-81
2023/09/27 07:08:35;;;;;;;11.70;4.10;;;28.10;55.80;;;;;;5029340;28;20030;-82
2023/09/27 07:11:08;;;;;;;10.93;3.50;;;27.80;54.80;;;;;;5029417;28;20104;-83
2023/09/27 07:13:34;;;;;;;18.95;3.45;;;27.90;54.50;;;;;;5027873;28;20095;-80
2023/09/27 07:16:17;;;;;;;10.35;3.85;;;27.70;55.70;;;;;;5028166;28;20038;-81
2023/09/27 07:18:42;;;;;;;8.65;3.45;;;27.60;54.30;;;;;;5029111;28;20547;-82
2023/09/27 07:21:10;;;;;;;11.20;3.00;;;27.40;55.40;;;;;;5027805;28;20041;-81
2023/09/27 07:23:35;;;;;;;19.20;4.18;;;27.20;55.80;;;;;;5029273;28;20472;-82
2023/09/27 07:26:04;;;;;;;14.85;3.40;;;27.10;55.60;;;;;;5029331;28;20542;-81
2023/09/27 07:28:31;;;;;;;13.65;3.60;;;27.10;56.30;;;;;;5029003;28;20053;-81
2023/09/27 07:30:57;;;;;;;10.90;3.45;;;27.20;55.00;;;;;;5029305;28;20379;-80
2023/09/27 07:33:25;;;;;;;10.18;3.72;;;27.50;54.80;;;;;;5028013;28;20041;-82
2023/09/27 07:35:52;;;;;;;7.65;3.05;;;28.00;54.10;;;;;;5027890;28;20087;-80
2023/09/27 07:38:18;;;;;;;5.93;2.97;;;28.20;53.30;;;;;;5027813;28;20045;-82
2023/09/27 07:40:47;;;;;;;6.97;3.97;;;28.50;53.10;;;;;;5028694;28;20038;-81
2023/09/27 07:43:14;;;;;;;14.60;3.47;;;28.40;51.90;;;;;;5027900;28;20228;-82
2023/09/27 07:45:42;;;;;;;10.20;3.28;;;28.30;51.80;;;;;;5029062;28;20031;-82
2023/09/27 07:48:08;;;;;;;10.57;3.53;;;28.10;51.50;;;;;;5028871;28;20028;-82
2023/09/27 07:50:38;;;;;;;15.60;3.28;;;27.70;51.10;;;;;;5028864;28;20486;-83
2023/09/27 07:53:06;;;;;;;9.18;3.22;;;27.50;52.30;;;;;;5028766;28;20029;-84
2023/09/27 07:55:32;;;;;;;8.80;3.35;;;27.40;53.10;;;;;;5028781;28;20025;-83
2023/09/27 07:57:59;;;;;;;9.77;3.40;;;27.20;53.40;;;;;;5030498;28;20032;-82
2023/09/27 08:00:29;;;;;;;10.80;3.70;;;27.30;54.20;;;;;;5032216;28;20057;-82
2023/09/27 08:02:57;;;;;;;14.00;3.40;;;27.40;54.50;;;;;;5032209;28;20136;-82
2023/09/27 08:05:23;;;;;;;9.88;3.30;;;27.40;54.40;;;;;;5032203;28;20022;-80
2023/09/27 08:07:50;;;;;;;16.85;4.82;;;27.40;54.90;;;;;;5030683;28;20041;-82
2023/09/27 08:10:17;;;;;;;17.00;4.85;;;27.40;55.50;;;;;;5032275;28;20438;-82
2023/09/27 08:12:43;;;;;;;14.45;4.35;;;27.40;54.30;;;;;;5032436;28;20426;-81
2023/09/27 08:15:12;;;;;;;10.20;3.88;;;27.30;55.10;;;;;;5032167;28;20030;-83
2023/09/27 08:17:38;;;;;;;10.15;3.33;;;27.50;55.60;;;;;;5030617;28;20045;-82
2023/09/27 08:20:11;;;;;;;19.95;4.75;;;27.90;54.60;;;;;;5030916;28;20120;-79
2023/09/27 08:22:39;;;;;;;10.95;4.05;;;28.40;53.50;;;;;;5031931;28;20136;-80
2023/09/27 08:25:14;;;;;;;8.02;3.90;;;28.90;51.20;;;;;;5031982;28;20071;-80
2023/09/27 08:27:40;;;;;;;15.48;3.95;;;29.20;50.90;;;;;;5031121;28;20026;-81
2023/09/27 08:30:06;;;;;;;17.33;3.88;;;29.60;49.00;;;;;;5032379;28;20022;-81
2023/09/27 08:32:34;;;;;;;15.38;4.13;;;29.80;47.90;;;;;;5032829;28;20032;-81
2023/09/27 08:35:00;;;;;;;14.38;3.50;;;30.00;47.70;;;;;;5031630;28;20026;-80
2023/09/27 08:37:27;;;;;;;11.55;3.03;;;30.30;47.60;;;;;;5033294;28;20079;-81
2023/09/27 08:39:53;;;;;;;10.63;3.58;;;30.20;47.80;;;;;;5032920;28;20113;-81
2023/09/27 08:42:20;;;;;;;13.50;2.95;;;30.40;47.40;;;;;;5032698;28;20120;-83
2023/09/27 08:44:48;;;;;;;15.13;3.75;;;30.40;45.50;;;;;;5032999;28;20021;-81
2023/09/27 08:47:14;;;;;;;16.98;4.45;;;30.70;45.70;;;;;;5032617;28;20113;-86
2023/09/27 08:49:40;;;;;;;10.68;3.53;;;30.80;46.20;;;;;;5031621;28;20474;-83
2023/09/27 08:52:07;;;;;;;8.68;3.45;;;30.80;45.70;;;;;;5034067;28;20534;-81
2023/09/27 08:54:33;;;;;;;10.65;3.63;;;31.10;44.70;;;;;;5032827;28;20055;-83
2023/09/27 08:56:59;;;;;;;13.00;3.47;;;31.10;45.30;;;;;;5032998;28;20510;-82
2023/09/27 08:59:25;;;;;;;19.02;4.32;;;31.10;44.70;;;;;;5030907;28;20021;-82
2023/09/27 09:01:53;;;;;;;14.18;4.00;;;31.10;45.50;;;;;;5031836;28;20088;-81
2023/09/27 09:04:19;;;;;;;12.88;4.03;;;31.00;44.50;;;;;;5030326;28;20100;-82
2023/09/27 09:06:45;;;;;;;9.48;3.88;;;30.90;45.30;;;;;;5031795;28;20606;-82
2023/09/27 09:09:11;;;;;;;19.70;5.03;;;31.00;44.80;;;;;;5030456;28;20912;-82
2023/09/27 09:11:47;;;;;;;15.75;4.97;;;31.20;45.00;;;;;;5029918;28;20056;-83
2023/09/27 09:14:17;;;;;;;9.52;4.00;;;31.50;43.80;;;;;;5029859;28;20032;-84
2023/09/27 09:16:50;;;;;;;13.63;3.58;;;31.40;44.50;;;;;;5031298;28;20068;-82
2023/09/27 09:19:24;;;;;;;12.82;4.38;;;31.60;44.50;;;;;;5030042;28;20460;-84
2023/09/27 09:22:03;;;;;;;10.27;3.75;;;31.50;43.50;;;;;;5030138;28;20517;-80
2023/09/27 09:24:31;;;;;;;10.18;3.42;;;31.50;42.20;;;;;;5031028;28;20394;-84
2023/09/27 09:27:08;;;;;;;25.80;3.80;;;31.50;42.20;;;;;;5030753;28;20120;-83
2023/09/27 09:29:48;;;;;;;16.10;3.58;;;31.70;42.40;;;;;;5030363;28;20112;-84
2023/09/27 09:32:17;;;;;;;17.08;3.45;;;32.10;40.50;;;;;;5031155;28;20064;-84
2023/09/27 09:34:44;;;;;;;12.75;3.80;;;32.00;41.30;;;;;;5030163;28;20037;-82
2023/09/27 09:37:17;;;;;;;12.10;3.40;;;32.00;39.80;;;;;;5030485;28;20572;-83
2023/09/27 09:39:43;;;;;;;7.78;3.60;;;31.80;40.30;;;;;;5028873;28;20033;-84
2023/09/27 09:42:09;;;;;;;9.38;3.47;;;31.70;41.00;;;;;;5030980;28;20034;-84
2023/09/27 09:44:35;;;;;;;11.55;3.40;;;32.00;40.00;;;;;;5030672;28;20548;-85
2023/09/27 09:47:12;;;;;;;12.45;3.22;;;32.30;40.40;;;;;;5030160;28;20022;-83
2023/09/27 09:49:38;;;;;;;9.93;3.40;;;32.50;39.80;;;;;;5030428;28;20071;-85
2023/09/27 09:52:05;;;;;;;7.95;3.17;;;32.50;40.00;;;;;;5030681;28;20113;-83
2023/09/27 09:54:49;;;;;;;6.32;2.90;;;32.80;38.60;;;;;;5028935;28;20030;-82
2023/09/27 09:57:15;;;;;;;9.85;3.05;;;32.90;37.70;;;;;;5030461;28;20034;-82
2023/09/27 10:00:25;;;;;;;17.80;3.90;;;32.90;37.40;;;;;;5030464;28;20132;-83
2023/09/27 10:03:04;;;;;;;12.73;3.47;;;33.10;37.30;;;;;;5029328;28;20075;-84
2023/09/27 10:05:53;;;;;;;7.93;3.33;;;33.50;37.10;;;;;;5029986;28;20461;-83
2023/09/27 10:08:19;;;;;;;13.13;3.28;;;34.10;36.20;;;;;;5029102;28;20029;-82
2023/09/27 10:10:45;;;;;;;16.23;2.50;;;33.90;35.40;;;;;;5028936;28;20030;-81
2023/09/27 10:13:12;;;;;;;6.78;2.95;;;33.90;34.80;;;;;;5030450;28;20079;-82
2023/09/27 10:15:40;;;;;;;6.90;2.58;;;33.70;34.50;;;;;;5030038;28;20025;-84
2023/09/27 10:18:36;;;;;;;11.57;2.70;;;33.80;33.60;;;;;;5029104;28;20033;-81
2023/09/27 10:21:02;;;;;;;9.00;3.15;;;33.80;33.40;;;;;;5020784;28;20514;-81
2023/09/27 10:23:46;;;;;;;12.70;3.22;;;33.20;34.60;;;;;;5027952;28;20124;-80
2023/09/27 10:26:27;;;;;;;13.27;3.90;;;32.40;35.40;;;;;;5028599;28;20112;-80
2023/09/27 10:29:06;;;;;;;7.10;2.78;;;31.30;37.50;;;;;;5029623;28;20018;-81
2023/09/27 10:31:37;;;;;;;9.00;3.20;;;30.80;40.30;;;;;;5027970;28;20025;-81
2023/09/27 10:34:27;;;;;;;15.02;3.65;;;30.40;38.80;;;;;;5027630;28;20480;-82
2023/09/27 10:36:53;;;;;;;8.63;2.88;;;29.90;40.80;;;;;;5019688;28;20060;-80
2023/09/27 10:39:20;;;;;;;17.00;3.38;;;29.60;41.10;;;;;;5029408;28;20490;-80
2023/09/27 10:41:51;;;;;;;15.25;3.97;;;29.30;41.80;;;;;;5029547;28;20065;-81
2023/09/27 10:44:29;;;;;;;10.43;3.58;;;29.00;42.20;;;;;;5029699;28;20026;-82
2023/09/27 10:46:56;;;;;;;8.98;3.03;;;28.70;41.70;;;;;;5029820;28;20025;-79
2023/09/27 10:49:27;;;;;;;7.88;3.35;;;28.50;43.10;;;;;;5028192;28;20065;-82
2023/09/27 10:51:53;;;;;;;6.13;2.88;;;28.30;41.70;;;;;;5028288;28;20510;-80
2023/09/27 10:54:28;;;;;;;10.45;3.35;;;28.20;40.00;;;;;;5028601;28;20605;-81
2023/09/27 10:56:56;;;;;;;7.47;3.25;;;28.00;41.00;;;;;;5029995;28;20394;-82
2023/09/27 10:59:28;;;;;;;5.45;2.38;;;27.90;41.40;;;;;;5029790;28;20028;-81
2023/09/27 11:01:59;;;;;;;12.35;2.78;;;27.90;40.60;;;;;;5027906;28;20056;-80
2023/09/27 11:04:25;;;;;;;10.23;2.78;;;27.90;39.20;;;;;;5028404;28;20032;-80
2023/09/27 11:06:52;;;;;;;12.15;2.25;;;27.90;37.80;;;;;;5028552;28;20041;-80
2023/09/27 11:09:19;;;;;;;10.85;2.35;;;27.90;38.20;;;;;;5027743;28;20030;-80
2023/09/27 11:11:53;;;;;;;13.93;2.20;;;27.90;39.20;;;;;;5028304;28;20026;-80
2023/09/27 11:14:33;;;;;;;6.00;2.30;;;27.90;38.50;;;;;;5028142;28;20033;-81
2023/09/27 11:17:21;;;;;;;10.18;2.58;;;28.00;38.00;;;;;;5027869;28;20541;-81
2023/09/27 11:19:48;;;;;;;8.63;3.15;;;28.00;38.20;;;;;;5027896;28;20516;-81
2023/09/27 11:22:24;;;;;;;14.18;2.38;;;28.00;38.30;;;;;;5029325;28;20561;-81
2023/09/27 11:24:50;;;;;;;8.02;2.58;;;28.00;38.80;;;;;;5027999;28;20117;-81
2023/09/27 11:27:19;;;;;;;9.18;2.05;;;27.90;38.90;;;;;;5028965;28;20461;-81
2023/09/27 11:29:53;;;;;;;6.97;2.38;;;27.90;38.50;;;;;;5029039;28;20494;-80
2023/09/27 11:32:23;;;;;;;12.63;2.55;;;28.00;39.60;;;;;;5029134;28;20765;-80
2023/09/27 11:34:58;;;;;;;11.02;2.55;;;27.90;40.60;;;;;;5032462;28;20033;-81
2023/09/27 11:37:25;;;;;;;11.32;2.80;;;27.80;40.10;;;;;;5033677;28;20033;-83
2023/09/27 11:39:52;;;;;;;10.43;2.63;;;27.80;40.30;;;;;;5040567;28;20025;-81
2023/09/27 11:42:22;;;;;;;10.07;3.40;;;27.80;42.20;;;;;;5052478;28;20096;-81
2023/09/27 11:45:08;;;;;;;5.45;2.47;;;27.70;40.40;;;;;;5051347;28;20532;-82
2023/09/27 11:47:52;;;;;;;7.38;2.22;;;27.60;41.70;;;;;;5052553;28;20511;-83
2023/09/27 11:50:19;;;;;;;7.30;2.35;;;27.70;40.00;;;;;;5053796;28;20044;-83
2023/09/27 11:52:46;;;;;;;5.25;2.47;;;27.70;41.10;;;;;;5052831;28;20056;-82
2023/09/27 11:55:18;;;;;;;12.07;3.28;;;27.70;40.90;;;;;;5052430;28;20032;-81
2023/09/27 11:57:44;;;;;;;6.13;2.53;;;27.60;41.80;;;;;;5052482;28;20029;-81
2023/09/27 12:00:15;;;;;;;8.10;2.53;;;27.60;42.70;;;;;;5052222;28;20445;-81
2023/09/27 12:02:41;;;;;;;11.35;2.88;;;27.60;41.50;;;;;;5052169;28;20123;-81
2023/09/27 12:05:07;;;;;;;14.20;3.55;;;27.60;43.60;;;;;;5053039;28;20101;-80
2023/09/27 12:07:33;;;;;;;7.10;2.88;;;27.60;43.00;;;;;;5053281;28;20457;-82
2023/09/27 12:10:00;;;;;;;18.48;3.20;;;27.50;42.80;;;;;;5052964;28;20090;-82
2023/09/27 12:12:27;;;;;;;9.93;2.83;;;27.40;43.60;;;;;;5051025;28;20025;-82
2023/09/27 12:14:53;;;;;;;10.07;3.40;;;27.50;41.90;;;;;;5052150;28;20049;-81
2023/09/27 12:17:19;;;;;;;8.68;2.40;;;27.60;41.10;;;;;;5052280;28;20616;-82
2023/09/27 12:19:45;;;;;;;8.25;2.80;;;27.60;39.70;;;;;;5050220;28;20695;-81
2023/09/27 12:22:11;;;;;;;11.45;2.47;;;27.60;40.00;;;;;;5050778;28;20044;-83
2023/09/27 12:24:38;;;;;;;8.70;2.67;;;27.60;40.70;;;;;;5052508;28;20028;-81
2023/09/27 12:27:04;;;;;;;7.30;3.00;;;27.70;39.90;;;;;;5051394;28;20087;-82
2023/09/27 12:29:30;;;;;;;7.97;2.30;;;27.70;38.40;;;;;;5050961;28;20466;-83
2023/09/27 12:31:56;;;;;;;5.85;2.25;;;27.70;38.40;;;;;;5052424;28;20028;-82
2023/09/27 12:34:22;;;;;;;7.75;2.33;;;27.60;38.10;;;;;;5051196;28;20033;-82
2023/09/27 12:36:48;;;;;;;10.13;2.85;;;27.70;39.40;;;;;;5050481;28;20059;-82
2023/09/27 12:39:14;;;;;;;9.52;2.80;;;27.70;38.90;;;;;;5050579;28;20040;-82
2023/09/27 12:41:40;;;;;;;19.02;2.95;;;27.70;39.60;;;;;;5051983;28;20079;-82
2023/09/27 12:44:05;;;;;;;11.13;3.38;;;27.50;39.80;;;;;;5050526;28;20080;-81